KBTV

Burlington International Airport

Burlington, Vermont, USA
METAR KBTV 180254Z 09003KT 10SM BKN160 M14/M17 A3027 RMK AO2 SLP257 T11391172 56006
Observed Flight Rules
Dec-18 @ 02:54 UTC (25 minutes ago) Visual Flight Rules
Wind Visibility Clouds
90° at 3 knots 10 miles
  • Broken at 16,000' AGL
Temperatures Readings
Current -14°C / 7°F
Dewpoint -17°C / 1°F
Humidity 78%
Altimeter 30.27" Hg
Pressure 1025.7 hPa
Elevation 105
METAR KBTV 180254Z 09003KT 10SM BKN160 M14/M17 A3027 RMK AO2 SLP257 T11391172 56006
Observed Flight Rules
Dec-18 @ 02:54 UTC
(25 minutes ago)
VFR
Wind Visibility
90° at 3 knots 10 miles
Clouds
  • Broken at 16,000' AGL
Temperature Dewpoint
-14°C / 7°F -17°C / 1°F
Humidity Altimeter Pressure
78% 30.27" Hg 1025.7 hPa